Terminal Aerodrome Forecast
Issued by NWS Melbourne, FL

Home | Current Version | Previous Version | Text Only | Print | Product List | Glossary On
Versions: 1 2 3 4 5 6 7 8 9 10 11 12 13 14 15 16
137
FTUS42 KMLB 162329
TAFDAB
TAF
KDAB 162329Z 1700/1724 36007KT P6SM SCT250
     FM170500 00000KT P6SM MIFG SCT250
      TEMPO 1710/1713 5SM BR
     FM171400 30010KT P6SM SCT040 SCT250=

USA.gov is the U.S. government's official web portal to all federal, state and local government web resources and services.